sensor_id;sensor_type;location;lat;lon;timestamp;temperature;humidity
22917;DHT22;11624;53.250;7.456;2023-02-08T00:01:25;4.18;53.57
22917;DHT22;11624;53.250;7.456;2023-02-08T00:03:55;4.20;53.55
22917;DHT22;11624;53.250;7.456;2023-02-08T00:06:24;4.10;53.81
22917;DHT22;11624;53.250;7.456;2023-02-08T00:08:52;4.03;54.18
22917;DHT22;11624;53.250;7.456;2023-02-08T00:11:20;4.00;54.07
22917;DHT22;11624;53.250;7.456;2023-02-08T00:13:48;3.98;54.13
22917;DHT22;11624;53.250;7.456;2023-02-08T00:16:17;3.97;54.22
22917;DHT22;11624;53.250;7.456;2023-02-08T00:18:45;3.95;54.13
22917;DHT22;11624;53.250;7.456;2023-02-08T00:21:16;3.93;54.22
22917;DHT22;11624;53.250;7.456;2023-02-08T00:23:45;3.90;54.31
22917;DHT22;11624;53.250;7.456;2023-02-08T00:26:14;3.91;54.17
22917;DHT22;11624;53.250;7.456;2023-02-08T00:28:43;3.90;54.08
22917;DHT22;11624;53.250;7.456;2023-02-08T00:31:11;3.89;54.02
22917;DHT22;11624;53.250;7.456;2023-02-08T00:33:40;3.86;53.97
22917;DHT22;11624;53.250;7.456;2023-02-08T00:36:10;3.85;53.90
22917;DHT22;11624;53.250;7.456;2023-02-08T00:38:41;3.83;53.90
22917;DHT22;11624;53.250;7.456;2023-02-08T00:41:10;3.78;54.04
22917;DHT22;11624;53.250;7.456;2023-02-08T00:43:39;3.76;54.14
22917;DHT22;11624;53.250;7.456;2023-02-08T00:46:08;3.77;54.20
22917;DHT22;11624;53.250;7.456;2023-02-08T00:48:36;3.77;54.34
22917;DHT22;11624;53.250;7.456;2023-02-08T00:51:07;3.77;54.45
22917;DHT22;11624;53.250;7.456;2023-02-08T00:53:36;3.77;54.49
22917;DHT22;11624;53.250;7.456;2023-02-08T00:56:07;3.79;54.49
22917;DHT22;11624;53.250;7.456;2023-02-08T00:58:36;3.80;54.56
22917;DHT22;11624;53.250;7.456;2023-02-08T01:01:05;3.83;54.58
22917;DHT22;11624;53.250;7.456;2023-02-08T01:03:35;3.77;54.71
22917;DHT22;11624;53.250;7.456;2023-02-08T01:06:06;3.79;54.65
22917;DHT22;11624;53.250;7.456;2023-02-08T01:08:34;3.82;54.54
22917;DHT22;11624;53.250;7.456;2023-02-08T01:11:04;3.79;54.62
22917;DHT22;11624;53.250;7.456;2023-02-08T01:13:34;3.82;54.62
22917;DHT22;11624;53.250;7.456;2023-02-08T01:16:07;3.77;54.51
22917;DHT22;11624;53.250;7.456;2023-02-08T01:18:36;3.76;54.67
22917;DHT22;11624;53.250;7.456;2023-02-08T01:21:07;3.77;54.67
22917;DHT22;11624;53.250;7.456;2023-02-08T01:23:36;3.76;54.71
22917;DHT22;11624;53.250;7.456;2023-02-08T01:26:05;3.77;54.75
22917;DHT22;11624;53.250;7.456;2023-02-08T01:28:35;3.75;54.72
22917;DHT22;11624;53.250;7.456;2023-02-08T01:31:05;3.77;54.75
22917;DHT22;11624;53.250;7.456;2023-02-08T01:33:34;3.75;54.77
22917;DHT22;11624;53.250;7.456;2023-02-08T01:36:03;3.76;54.79
22917;DHT22;11624;53.250;7.456;2023-02-08T01:38:31;3.76;54.72
22917;DHT22;11624;53.250;7.456;2023-02-08T01:40:59;3.73;54.75
22917;DHT22;11624;53.250;7.456;2023-02-08T01:43:30;3.74;54.75
22917;DHT22;11624;53.250;7.456;2023-02-08T01:46:00;3.68;54.93
22917;DHT22;11624;53.250;7.456;2023-02-08T01:48:30;3.68;54.87
22917;DHT22;11624;53.250;7.456;2023-02-08T01:51:02;3.69;54.86
22917;DHT22;11624;53.250;7.456;2023-02-08T01:53:33;3.69;54.90
22917;DHT22;11624;53.250;7.456;2023-02-08T01:56:05;3.67;54.95
22917;DHT22;11624;53.250;7.456;2023-02-08T01:58:36;3.64;55.10
22917;DHT22;11624;53.250;7.456;2023-02-08T02:01:09;3.62;55.07
22917;DHT22;11624;53.250;7.456;2023-02-08T02:03:38;3.65;55.06
22917;DHT22;11624;53.250;7.456;2023-02-08T02:06:09;3.67;55.04
22917;DHT22;11624;53.250;7.456;2023-02-08T02:08:39;3.70;55.12
22917;DHT22;11624;53.250;7.456;2023-02-08T02:11:10;3.71;55.01
22917;DHT22;11624;53.250;7.456;2023-02-08T02:13:38;3.71;54.94
22917;DHT22;11624;53.250;7.456;2023-02-08T02:16:08;3.69;54.84
22917;DHT22;11624;53.250;7.456;2023-02-08T02:18:36;3.65;54.82
22917;DHT22;11624;53.250;7.456;2023-02-08T02:21:27;3.61;54.66
22917;DHT22;11624;53.250;7.456;2023-02-08T02:24:23;3.58;54.61
22917;DHT22;11624;53.250;7.456;2023-02-08T02:27:18;3.58;54.69
22917;DHT22;11624;53.250;7.456;2023-02-08T02:30:30;3.49;54.59
22917;DHT22;11624;53.250;7.456;2023-02-08T02:33:24;3.48;54.52
22917;DHT22;11624;53.250;7.456;2023-02-08T02:35:59;3.45;55.04
22917;DHT22;11624;53.250;7.456;2023-02-08T02:38:40;3.41;54.94
22917;DHT22;11624;53.250;7.456;2023-02-08T02:41:18;3.42;54.89
22917;DHT22;11624;53.250;7.456;2023-02-08T02:44:13;3.42;54.83
22917;DHT22;11624;53.250;7.456;2023-02-08T02:46:46;3.41;54.81
22917;DHT22;11624;53.250;7.456;2023-02-08T02:49:25;3.38;54.60
22917;DHT22;11624;53.250;7.456;2023-02-08T02:51:57;3.35;54.78
22917;DHT22;11624;53.250;7.456;2023-02-08T02:54:29;3.32;54.78
22917;DHT22;11624;53.250;7.456;2023-02-08T02:57:02;3.32;54.84
22917;DHT22;11624;53.250;7.456;2023-02-08T02:59:32;3.31;54.82
22917;DHT22;11624;53.250;7.456;2023-02-08T03:02:01;3.31;54.80
22917;DHT22;11624;53.250;7.456;2023-02-08T03:04:50;3.28;54.46
22917;DHT22;11624;53.250;7.456;2023-02-08T03:10:20;3.25;54.55
22917;DHT22;11624;53.250;7.456;2023-02-08T03:13:00;3.23;54.72
22917;DHT22;11624;53.250;7.456;2023-02-08T03:15:38;3.20;54.64
22917;DHT22;11624;53.250;7.456;2023-02-08T03:18:17;3.20;54.68
22917;DHT22;11624;53.250;7.456;2023-02-08T03:20:57;3.19;54.76
22917;DHT22;11624;53.250;7.456;2023-02-08T03:23:30;3.21;55.06
22917;DHT22;11624;53.250;7.456;2023-02-08T03:26:01;3.25;55.10
22917;DHT22;11624;53.250;7.456;2023-02-08T03:28:37;3.27;54.97
22917;DHT22;11624;53.250;7.456;2023-02-08T03:31:12;3.24;54.89
22917;DHT22;11624;53.250;7.456;2023-02-08T03:33:46;3.24;54.93
22917;DHT22;11624;53.250;7.456;2023-02-08T03:36:21;3.24;54.86
22917;DHT22;11624;53.250;7.456;2023-02-08T03:38:53;3.24;55.06
22917;DHT22;11624;53.250;7.456;2023-02-08T03:41:27;3.25;55.03
22917;DHT22;11624;53.250;7.456;2023-02-08T03:43:59;3.24;55.07
22917;DHT22;11624;53.250;7.456;2023-02-08T03:46:31;3.23;55.00
22917;DHT22;11624;53.250;7.456;2023-02-08T03:49:03;3.18;55.12
22917;DHT22;11624;53.250;7.456;2023-02-08T03:51:36;3.16;55.08
22917;DHT22;11624;53.250;7.456;2023-02-08T03:54:10;3.17;55.00
22917;DHT22;11624;53.250;7.456;2023-02-08T03:56:45;3.16;54.88
22917;DHT22;11624;53.250;7.456;2023-02-08T03:59:19;3.14;54.95
22917;DHT22;11624;53.250;7.456;2023-02-08T04:01:54;3.05;55.21
22917;DHT22;11624;53.250;7.456;2023-02-08T04:04:26;3.05;55.42
22917;DHT22;11624;53.250;7.456;2023-02-08T04:06:57;3.05;55.43
22917;DHT22;11624;53.250;7.456;2023-02-08T04:09:25;3.05;55.37
22917;DHT22;11624;53.250;7.456;2023-02-08T04:11:53;3.05;55.28
22917;DHT22;11624;53.250;7.456;2023-02-08T04:14:21;3.04;55.23
22917;DHT22;11624;53.250;7.456;2023-02-08T04:16:50;3.02;55.24
22917;DHT22;11624;53.250;7.456;2023-02-08T04:19:18;3.01;55.29
22917;DHT22;11624;53.250;7.456;2023-02-08T04:21:46;3.02;55.26
22917;DHT22;11624;53.250;7.456;2023-02-08T04:24:15;3.02;55.29
22917;DHT22;11624;53.250;7.456;2023-02-08T04:26:43;3.02;55.30
22917;DHT22;11624;53.250;7.456;2023-02-08T04:29:11;3.01;55.27
22917;DHT22;11624;53.250;7.456;2023-02-08T04:31:39;2.97;55.44
22917;DHT22;11624;53.250;7.456;2023-02-08T04:34:07;2.98;55.39
22917;DHT22;11624;53.250;7.456;2023-02-08T04:36:35;2.98;55.35
22917;DHT22;11624;53.250;7.456;2023-02-08T04:39:04;2.97;55.33
22917;DHT22;11624;53.250;7.456;2023-02-08T04:41:33;2.94;55.34
22917;DHT22;11624;53.250;7.456;2023-02-08T04:44:01;2.91;55.36
22917;DHT22;11624;53.250;7.456;2023-02-08T04:46:29;2.90;55.33
22917;DHT22;11624;53.250;7.456;2023-02-08T04:48:57;2.89;55.39
22917;DHT22;11624;53.250;7.456;2023-02-08T04:51:25;2.90;55.36
22917;DHT22;11624;53.250;7.456;2023-02-08T04:53:53;2.95;55.29
22917;DHT22;11624;53.250;7.456;2023-02-08T04:56:21;2.97;55.25
22917;DHT22;11624;53.250;7.456;2023-02-08T04:58:51;2.99;55.22
22917;DHT22;11624;53.250;7.456;2023-02-08T05:01:19;2.99;55.17
22917;DHT22;11624;53.250;7.456;2023-02-08T05:03:47;3.00;55.17
22917;DHT22;11624;53.250;7.456;2023-02-08T05:06:15;2.97;55.28
22917;DHT22;11624;53.250;7.456;2023-02-08T05:08:43;2.94;55.48
22917;DHT22;11624;53.250;7.456;2023-02-08T05:11:11;2.89;55.83
22917;DHT22;11624;53.250;7.456;2023-02-08T05:13:39;2.95;55.92
22917;DHT22;11624;53.250;7.456;2023-02-08T05:16:09;2.94;56.26
22917;DHT22;11624;53.250;7.456;2023-02-08T05:18:37;2.98;56.41
22917;DHT22;11624;53.250;7.456;2023-02-08T05:21:05;3.03;56.18
22917;DHT22;11624;53.250;7.456;2023-02-08T05:23:33;3.04;56.29
22917;DHT22;11624;53.250;7.456;2023-02-08T05:26:05;3.02;56.29
22917;DHT22;11624;53.250;7.456;2023-02-08T05:28:33;3.04;56.47
22917;DHT22;11624;53.250;7.456;2023-02-08T05:31:10;3.01;56.64
22917;DHT22;11624;53.250;7.456;2023-02-08T05:33:39;3.09;56.87
22917;DHT22;11624;53.250;7.456;2023-02-08T05:36:07;3.13;57.04
22917;DHT22;11624;53.250;7.456;2023-02-08T05:38:35;3.19;56.87
22917;DHT22;11624;53.250;7.456;2023-02-08T05:41:04;3.21;56.98
22917;DHT22;11624;53.250;7.456;2023-02-08T05:43:32;3.21;57.05
22917;DHT22;11624;53.250;7.456;2023-02-08T05:46:00;3.24;56.93
22917;DHT22;11624;53.250;7.456;2023-02-08T05:48:30;3.27;56.74
22917;DHT22;11624;53.250;7.456;2023-02-08T05:50:58;3.30;56.63
22917;DHT22;11624;53.250;7.456;2023-02-08T05:53:26;3.31;56.47
22917;DHT22;11624;53.250;7.456;2023-02-08T05:55:55;3.28;56.47
22917;DHT22;11624;53.250;7.456;2023-02-08T05:58:24;3.27;56.45
22917;DHT22;11624;53.250;7.456;2023-02-08T06:00:52;3.27;56.45
22917;DHT22;11624;53.250;7.456;2023-02-08T06:03:20;3.28;56.41
22917;DHT22;11624;53.250;7.456;2023-02-08T06:05:49;3.28;56.36
22917;DHT22;11624;53.250;7.456;2023-02-08T06:08:18;3.26;56.32
22917;DHT22;11624;53.250;7.456;2023-02-08T06:10:47;3.26;56.24
22917;DHT22;11624;53.250;7.456;2023-02-08T06:13:15;3.25;56.29
22917;DHT22;11624;53.250;7.456;2023-02-08T06:15:43;3.24;56.23
22917;DHT22;11624;53.250;7.456;2023-02-08T06:18:11;3.25;56.07
22917;DHT22;11624;53.250;7.456;2023-02-08T06:20:40;3.21;55.87
22917;DHT22;11624;53.250;7.456;2023-02-08T06:23:09;3.15;55.69
22917;DHT22;11624;53.250;7.456;2023-02-08T06:25:38;3.11;55.58
22917;DHT22;11624;53.250;7.456;2023-02-08T06:28:06;2.97;55.72
22917;DHT22;11624;53.250;7.456;2023-02-08T06:30:36;2.87;55.77
22917;DHT22;11624;53.250;7.456;2023-02-08T06:33:05;2.79;55.86
22917;DHT22;11624;53.250;7.456;2023-02-08T06:35:33;2.70;56.03
22917;DHT22;11624;53.250;7.456;2023-02-08T06:38:01;2.68;55.91
22917;DHT22;11624;53.250;7.456;2023-02-08T06:40:30;2.68;55.81
22917;DHT22;11624;53.250;7.456;2023-02-08T06:42:58;2.68;55.69
22917;DHT22;11624;53.250;7.456;2023-02-08T06:45:26;2.67;55.60
22917;DHT22;11624;53.250;7.456;2023-02-08T06:47:54;2.65;55.59
22917;DHT22;11624;53.250;7.456;2023-02-08T06:50:22;2.59;55.62
22917;DHT22;11624;53.250;7.456;2023-02-08T06:52:50;2.58;55.61
22917;DHT22;11624;53.250;7.456;2023-02-08T06:55:19;2.55;55.68
22917;DHT22;11624;53.250;7.456;2023-02-08T06:57:48;2.54;55.74
22917;DHT22;11624;53.250;7.456;2023-02-08T07:00:20;2.53;55.76
22917;DHT22;11624;53.250;7.456;2023-02-08T07:02:48;2.53;55.78
22917;DHT22;11624;53.250;7.456;2023-02-08T07:05:17;2.51;55.82
22917;DHT22;11624;53.250;7.456;2023-02-08T07:07:45;2.51;55.77
22917;DHT22;11624;53.250;7.456;2023-02-08T07:10:14;2.49;55.78
22917;DHT22;11624;53.250;7.456;2023-02-08T07:12:42;2.45;55.87
22917;DHT22;11624;53.250;7.456;2023-02-08T07:15:12;2.38;56.13
22917;DHT22;11624;53.250;7.456;2023-02-08T07:17:40;2.43;56.02
22917;DHT22;11624;53.250;7.456;2023-02-08T07:20:09;2.45;55.98
22917;DHT22;11624;53.250;7.456;2023-02-08T07:22:38;2.46;56.00
22917;DHT22;11624;53.250;7.456;2023-02-08T07:25:08;2.43;56.23
22917;DHT22;11624;53.250;7.456;2023-02-08T07:27:36;2.47;56.17
22917;DHT22;11624;53.250;7.456;2023-02-08T07:30:05;2.47;56.19
22917;DHT22;11624;53.250;7.456;2023-02-08T07:32:35;2.50;56.17
22917;DHT22;11624;53.250;7.456;2023-02-08T07:35:03;2.52;56.20
22917;DHT22;11624;53.250;7.456;2023-02-08T07:37:31;2.54;56.24
22917;DHT22;11624;53.250;7.456;2023-02-08T07:39:59;2.56;56.26
22917;DHT22;11624;53.250;7.456;2023-02-08T07:42:27;2.60;56.26
22917;DHT22;11624;53.250;7.456;2023-02-08T07:45:09;2.66;56.29
22917;DHT22;11624;53.250;7.456;2023-02-08T07:47:39;2.69;56.29
22917;DHT22;11624;53.250;7.456;2023-02-08T07:50:07;2.71;56.42
22917;DHT22;11624;53.250;7.456;2023-02-08T07:52:35;2.74;56.47
22917;DHT22;11624;53.250;7.456;2023-02-08T07:55:04;2.81;56.46
22917;DHT22;11624;53.250;7.456;2023-02-08T07:57:32;2.83;56.57
22917;DHT22;11624;53.250;7.456;2023-02-08T08:00:00;2.88;56.55
22917;DHT22;11624;53.250;7.456;2023-02-08T08:02:39;2.93;56.64
22917;DHT22;11624;53.250;7.456;2023-02-08T08:05:08;2.99;56.73
22917;DHT22;11624;53.250;7.456;2023-02-08T08:07:36;3.03;56.85
22917;DHT22;11624;53.250;7.456;2023-02-08T08:10:05;3.09;57.03
22917;DHT22;11624;53.250;7.456;2023-02-08T08:12:33;3.05;57.87
22917;DHT22;11624;53.250;7.456;2023-02-08T08:15:01;3.15;58.11
22917;DHT22;11624;53.250;7.456;2023-02-08T08:17:29;3.16;58.77
22917;DHT22;11624;53.250;7.456;2023-02-08T08:19:58;3.24;59.48
22917;DHT22;11624;53.250;7.456;2023-02-08T08:22:26;3.42;59.67
22917;DHT22;11624;53.250;7.456;2023-02-08T08:24:54;3.69;60.66
22917;DHT22;11624;53.250;7.456;2023-02-08T08:27:23;3.85;61.60
22917;DHT22;11624;53.250;7.456;2023-02-08T08:29:51;4.23;62.49
22917;DHT22;11624;53.250;7.456;2023-02-08T08:32:22;4.43;61.34
22917;DHT22;11624;53.250;7.456;2023-02-08T08:34:52;4.74;60.93
22917;DHT22;11624;53.250;7.456;2023-02-08T08:37:21;5.17;60.47
22917;DHT22;11624;53.250;7.456;2023-02-08T08:39:49;5.61;59.54
22917;DHT22;11624;53.250;7.456;2023-02-08T08:42:17;5.83;56.78
22917;DHT22;11624;53.250;7.456;2023-02-08T08:44:46;5.83;56.46
22917;DHT22;11624;53.250;7.456;2023-02-08T08:47:14;6.30;56.61
22917;DHT22;11624;53.250;7.456;2023-02-08T08:49:43;6.23;57.89
22917;DHT22;11624;53.250;7.456;2023-02-08T08:52:11;6.55;57.88
22917;DHT22;11624;53.250;7.456;2023-02-08T08:54:41;7.01;57.00
22917;DHT22;11624;53.250;7.456;2023-02-08T08:57:09;7.35;55.39
22917;DHT22;11624;53.250;7.456;2023-02-08T08:59:37;7.61;54.30
22917;DHT22;11624;53.250;7.456;2023-02-08T09:02:05;7.88;52.80
22917;DHT22;11624;53.250;7.456;2023-02-08T09:04:33;8.30;52.36
22917;DHT22;11624;53.250;7.456;2023-02-08T09:07:01;8.64;50.90
22917;DHT22;11624;53.250;7.456;2023-02-08T09:09:29;8.82;49.57
22917;DHT22;11624;53.250;7.456;2023-02-08T09:11:59;8.60;47.97
22917;DHT22;11624;53.250;7.456;2023-02-08T09:14:27;8.86;48.45
22917;DHT22;11624;53.250;7.456;2023-02-08T09:16:55;8.91;46.98
22917;DHT22;11624;53.250;7.456;2023-02-08T09:19:24;9.19;48.49
22917;DHT22;11624;53.250;7.456;2023-02-08T09:21:53;9.38;46.61
22917;DHT22;11624;53.250;7.456;2023-02-08T09:24:23;9.23;45.22
22917;DHT22;11624;53.250;7.456;2023-02-08T09:26:51;9.01;45.90
22917;DHT22;11624;53.250;7.456;2023-02-08T09:29:21;9.30;46.22
22917;DHT22;11624;53.250;7.456;2023-02-08T09:31:49;9.30;45.87
22917;DHT22;11624;53.250;7.456;2023-02-08T09:34:17;9.82;45.63
22917;DHT22;11624;53.250;7.456;2023-02-08T09:36:45;10.27;44.94
22917;DHT22;11624;53.250;7.456;2023-02-08T09:39:16;10.84;43.79
22917;DHT22;11624;53.250;7.456;2023-02-08T09:45:01;11.33;40.13
22917;DHT22;11624;53.250;7.456;2023-02-08T09:47:33;11.08;40.13
22917;DHT22;11624;53.250;7.456;2023-02-08T09:50:09;10.86;40.02
22917;DHT22;11624;53.250;7.456;2023-02-08T09:52:42;10.93;40.41
22917;DHT22;11624;53.250;7.456;2023-02-08T09:55:19;10.93;40.28
22917;DHT22;11624;53.250;7.456;2023-02-08T09:57:50;11.28;40.71
22917;DHT22;11624;53.250;7.456;2023-02-08T10:00:27;11.38;39.89
22917;DHT22;11624;53.250;7.456;2023-02-08T10:02:58;11.72;40.12
22917;DHT22;11624;53.250;7.456;2023-02-08T10:05:29;11.68;39.37
22917;DHT22;11624;53.250;7.456;2023-02-08T10:07:59;11.83;39.14
22917;DHT22;11624;53.250;7.456;2023-02-08T10:10:36;12.16;38.40
22917;DHT22;11624;53.250;7.456;2023-02-08T10:13:15;12.80;39.04
22917;DHT22;11624;53.250;7.456;2023-02-08T10:15:54;12.81;36.59
22917;DHT22;11624;53.250;7.456;2023-02-08T10:18:35;13.08;35.76
22917;DHT22;11624;53.250;7.456;2023-02-08T10:21:21;13.16;35.77
22917;DHT22;11624;53.250;7.456;2023-02-08T10:26:53;13.54;35.47
22917;DHT22;11624;53.250;7.456;2023-02-08T10:29:34;13.65;34.82
22917;DHT22;11624;53.250;7.456;2023-02-08T10:32:17;13.99;32.82
22917;DHT22;11624;53.250;7.456;2023-02-08T10:34:51;14.38;32.70
22917;DHT22;11624;53.250;7.456;2023-02-08T10:37:27;14.62;32.02
22917;DHT22;11624;53.250;7.456;2023-02-08T10:40:02;14.83;31.34
22917;DHT22;11624;53.250;7.456;2023-02-08T10:42:31;14.94;31.31
22917;DHT22;11624;53.250;7.456;2023-02-08T10:45:04;15.53;31.57
22917;DHT22;11624;53.250;7.456;2023-02-08T10:47:52;15.83;29.45
22917;DHT22;11624;53.250;7.456;2023-02-08T10:50:24;15.83;30.16
22917;DHT22;11624;53.250;7.456;2023-02-08T10:52:56;16.15;30.49
22917;DHT22;11624;53.250;7.456;2023-02-08T10:55:25;16.18;28.74
22917;DHT22;11624;53.250;7.456;2023-02-08T10:57:56;15.96;28.79
22917;DHT22;11624;53.250;7.456;2023-02-08T11:00:27;15.62;29.42
22917;DHT22;11624;53.250;7.456;2023-02-08T11:03:00;15.67;30.09
22917;DHT22;11624;53.250;7.456;2023-02-08T11:05:32;15.92;29.34
22917;DHT22;11624;53.250;7.456;2023-02-08T11:08:06;15.93;29.34
22917;DHT22;11624;53.250;7.456;2023-02-08T11:10:35;16.02;29.18
22917;DHT22;11624;53.250;7.456;2023-02-08T11:13:06;15.95;29.21
22917;DHT22;11624;53.250;7.456;2023-02-08T11:15:44;16.17;28.61
22917;DHT22;11624;53.250;7.456;2023-02-08T11:18:22;16.35;28.22
22917;DHT22;11624;53.250;7.456;2023-02-08T11:20:52;16.67;28.62
22917;DHT22;11624;53.250;7.456;2023-02-08T11:23:24;16.88;28.07
22917;DHT22;11624;53.250;7.456;2023-02-08T11:25:54;16.81;27.52
22917;DHT22;11624;53.250;7.456;2023-02-08T11:28:26;16.74;27.91
22917;DHT22;11624;53.250;7.456;2023-02-08T11:30:56;16.65;27.16
22917;DHT22;11624;53.250;7.456;2023-02-08T11:33:27;17.13;27.89
22917;DHT22;11624;53.250;7.456;2023-02-08T11:36:06;17.62;26.36
22917;DHT22;11624;53.250;7.456;2023-02-08T11:38:40;17.52;26.08
22917;DHT22;11624;53.250;7.456;2023-02-08T11:41:19;17.24;25.49
22917;DHT22;11624;53.250;7.456;2023-02-08T11:43:57;17.23;26.40
22917;DHT22;11624;53.250;7.456;2023-02-08T11:46:27;17.26;26.33
22917;DHT22;11624;53.250;7.456;2023-02-08T11:48:57;17.58;26.02
22917;DHT22;11624;53.250;7.456;2023-02-08T11:51:30;17.66;25.49
22917;DHT22;11624;53.250;7.456;2023-02-08T11:54:00;17.96;25.26
22917;DHT22;11624;53.250;7.456;2023-02-08T11:56:30;18.67;24.98
22917;DHT22;11624;53.250;7.456;2023-02-08T11:59:17;18.09;23.98
22917;DHT22;11624;53.250;7.456;2023-02-08T12:01:46;18.15;24.42
22917;DHT22;11624;53.250;7.456;2023-02-08T12:04:16;17.64;24.72
22917;DHT22;11624;53.250;7.456;2023-02-08T12:07:09;17.91;24.21
22917;DHT22;11624;53.250;7.456;2023-02-08T12:10:03;18.10;24.17
22917;DHT22;11624;53.250;7.456;2023-02-08T12:12:46;18.12;24.41
22917;DHT22;11624;53.250;7.456;2023-02-08T12:15:28;18.54;24.08
22917;DHT22;11624;53.250;7.456;2023-02-08T12:18:17;18.00;24.12
22917;DHT22;11624;53.250;7.456;2023-02-08T12:20:51;18.17;24.88
22917;DHT22;11624;53.250;7.456;2023-02-08T12:23:46;18.24;24.63
22917;DHT22;11624;53.250;7.456;2023-02-08T12:26:21;18.41;23.69
22917;DHT22;11624;53.250;7.456;2023-02-08T12:29:01;17.55;24.78
22917;DHT22;11624;53.250;7.456;2023-02-08T12:31:44;17.99;25.09
22917;DHT22;11624;53.250;7.456;2023-02-08T12:34:16;18.11;23.75
22917;DHT22;11624;53.250;7.456;2023-02-08T12:37:05;17.88;23.74
22917;DHT22;11624;53.250;7.456;2023-02-08T12:40:00;17.40;25.12
22917;DHT22;11624;53.250;7.456;2023-02-08T12:43:04;17.93;23.57
22917;DHT22;11624;53.250;7.456;2023-02-08T12:45:50;17.99;22.82
22917;DHT22;11624;53.250;7.456;2023-02-08T12:48:32;17.65;22.20
22917;DHT22;11624;53.250;7.456;2023-02-08T12:51:12;17.94;22.82
22917;DHT22;11624;53.250;7.456;2023-02-08T12:53:49;17.81;22.03
22917;DHT22;11624;53.250;7.456;2023-02-08T12:56:22;17.68;22.38
22917;DHT22;11624;53.250;7.456;2023-02-08T12:58:55;17.62;21.62
22917;DHT22;11624;53.250;7.456;2023-02-08T13:01:42;17.84;21.56
22917;DHT22;11624;53.250;7.456;2023-02-08T13:04:13;18.25;20.54
22917;DHT22;11624;53.250;7.456;2023-02-08T13:06:47;18.07;20.09
22917;DHT22;11624;53.250;7.456;2023-02-08T13:09:25;18.26;19.88
22917;DHT22;11624;53.250;7.456;2023-02-08T13:12:06;18.59;19.51
22917;DHT22;11624;53.250;7.456;2023-02-08T13:14:37;19.17;19.18
22917;DHT22;11624;53.250;7.456;2023-02-08T13:17:13;19.43;18.94
22917;DHT22;11624;53.250;7.456;2023-02-08T13:19:50;19.73;17.91
22917;DHT22;11624;53.250;7.456;2023-02-08T13:22:30;19.07;16.69
22917;DHT22;11624;53.250;7.456;2023-02-08T13:25:01;19.18;17.18
22917;DHT22;11624;53.250;7.456;2023-02-08T13:28:05;19.07;17.54
22917;DHT22;11624;53.250;7.456;2023-02-08T13:30:36;19.10;17.41
22917;DHT22;11624;53.250;7.456;2023-02-08T13:33:14;18.94;16.46
22917;DHT22;11624;53.250;7.456;2023-02-08T13:35:48;18.84;17.56
22917;DHT22;11624;53.250;7.456;2023-02-08T13:38:26;18.89;17.50
22917;DHT22;11624;53.250;7.456;2023-02-08T13:41:12;18.99;17.54
22917;DHT22;11624;53.250;7.456;2023-02-08T13:43:47;19.25;17.95
22917;DHT22;11624;53.250;7.456;2023-02-08T13:46:17;19.41;17.83
22917;DHT22;11624;53.250;7.456;2023-02-08T13:48:47;19.05;17.52
22917;DHT22;11624;53.250;7.456;2023-02-08T13:54:29;18.58;18.19
22917;DHT22;11624;53.250;7.456;2023-02-08T13:56:59;18.52;18.66
22917;DHT22;11624;53.250;7.456;2023-02-08T13:59:29;18.64;18.21
22917;DHT22;11624;53.250;7.456;2023-02-08T14:02:18;18.47;18.01
22917;DHT22;11624;53.250;7.456;2023-02-08T14:04:50;18.07;18.19
22917;DHT22;11624;53.250;7.456;2023-02-08T14:07:24;18.09;17.77
22917;DHT22;11624;53.250;7.456;2023-02-08T14:10:23;18.14;17.56
22917;DHT22;11624;53.250;7.456;2023-02-08T14:12:59;17.61;18.19
22917;DHT22;11624;53.250;7.456;2023-02-08T14:15:31;17.49;18.33
22917;DHT22;11624;53.250;7.456;2023-02-08T14:18:00;17.80;18.30
22917;DHT22;11624;53.250;7.456;2023-02-08T14:20:34;17.88;17.98
22917;DHT22;11624;53.250;7.456;2023-02-08T14:23:07;17.91;17.99
22917;DHT22;11624;53.250;7.456;2023-02-08T14:25:48;17.99;18.14
22917;DHT22;11624;53.250;7.456;2023-02-08T14:28:30;18.06;18.12
22917;DHT22;11624;53.250;7.456;2023-02-08T14:31:00;18.30;18.15
22917;DHT22;11624;53.250;7.456;2023-02-08T14:33:32;17.99;17.79
22917;DHT22;11624;53.250;7.456;2023-02-08T14:36:04;17.81;18.06
22917;DHT22;11624;53.250;7.456;2023-02-08T14:38:50;17.54;18.54
22917;DHT22;11624;53.250;7.456;2023-02-08T14:41:41;17.17;18.46
22917;DHT22;11624;53.250;7.456;2023-02-08T14:50:41;17.19;19.41
22917;DHT22;11624;53.250;7.456;2023-02-08T14:53:30;17.19;19.26
22917;DHT22;11624;53.250;7.456;2023-02-08T14:56:04;17.26;19.25
22917;DHT22;11624;53.250;7.456;2023-02-08T14:58:35;17.04;19.09
22917;DHT22;11624;53.250;7.456;2023-02-08T15:01:06;16.69;19.30
22917;DHT22;11624;53.250;7.456;2023-02-08T15:03:35;16.48;19.50
22917;DHT22;11624;53.250;7.456;2023-02-08T15:06:32;16.27;19.85
22917;DHT22;11624;53.250;7.456;2023-02-08T15:09:04;16.36;19.89
22917;DHT22;11624;53.250;7.456;2023-02-08T15:11:34;16.26;19.87
22917;DHT22;11624;53.250;7.456;2023-02-08T15:14:03;16.12;20.28
22917;DHT22;11624;53.250;7.456;2023-02-08T15:16:35;15.75;20.57
22917;DHT22;11624;53.250;7.456;2023-02-08T15:19:07;15.74;20.70
22917;DHT22;11624;53.250;7.456;2023-02-08T15:21:37;15.96;20.57
22917;DHT22;11624;53.250;7.456;2023-02-08T15:24:13;15.34;20.45
22917;DHT22;11624;53.250;7.456;2023-02-08T15:26:45;15.39;20.91
22917;DHT22;11624;53.250;7.456;2023-02-08T15:29:19;15.11;21.24
22917;DHT22;11624;53.250;7.456;2023-02-08T15:31:52;14.89;21.41
22917;DHT22;11624;53.250;7.456;2023-02-08T15:34:24;14.48;22.05
22917;DHT22;11624;53.250;7.456;2023-02-08T15:36:55;14.10;22.60
22917;DHT22;11624;53.250;7.456;2023-02-08T15:39:29;13.97;23.00
22917;DHT22;11624;53.250;7.456;2023-02-08T15:41:59;13.70;23.42
22917;DHT22;11624;53.250;7.456;2023-02-08T15:44:30;13.45;24.03
22917;DHT22;11624;53.250;7.456;2023-02-08T15:46:59;13.21;24.29
22917;DHT22;11624;53.250;7.456;2023-02-08T15:49:31;13.04;24.84
22917;DHT22;11624;53.250;7.456;2023-02-08T15:52:01;12.87;25.08
22917;DHT22;11624;53.250;7.456;2023-02-08T15:54:30;12.80;25.23
22917;DHT22;11624;53.250;7.456;2023-02-08T15:57:01;12.71;25.39
22917;DHT22;11624;53.250;7.456;2023-02-08T15:59:32;12.58;25.59
22917;DHT22;11624;53.250;7.456;2023-02-08T16:02:14;12.66;25.81
22917;DHT22;11624;53.250;7.456;2023-02-08T16:04:45;12.58;26.26
22917;DHT22;11624;53.250;7.456;2023-02-08T16:07:22;12.36;26.33
22917;DHT22;11624;53.250;7.456;2023-02-08T16:09:51;12.35;26.42
22917;DHT22;11624;53.250;7.456;2023-02-08T16:12:22;12.16;26.80
22917;DHT22;11624;53.250;7.456;2023-02-08T16:14:51;12.07;27.07
22917;DHT22;11624;53.250;7.456;2023-02-08T16:17:31;12.11;27.24
22917;DHT22;11624;53.250;7.456;2023-02-08T16:20:00;12.07;27.36
22917;DHT22;11624;53.250;7.456;2023-02-08T16:22:31;11.97;27.93
22917;DHT22;11624;53.250;7.456;2023-02-08T16:25:21;11.82;27.87
22917;DHT22;11624;53.250;7.456;2023-02-08T16:27:50;11.67;28.38
22917;DHT22;11624;53.250;7.456;2023-02-08T16:30:19;11.52;28.77
22917;DHT22;11624;53.250;7.456;2023-02-08T16:32:48;11.36;29.34